createdAt,value
2024-05-09T00:01:09.801Z,17.58
2024-05-09T00:06:11.463Z,17.80
2024-05-09T00:11:20.568Z,17.71
2024-05-09T00:16:22.430Z,17.72
2024-05-09T00:21:24.063Z,17.84
2024-05-09T00:26:25.775Z,17.83
2024-05-09T00:31:27.452Z,17.79
2024-05-09T00:36:29.081Z,17.80
2024-05-09T00:41:30.779Z,17.92
2024-05-09T00:46:32.451Z,17.99
2024-05-09T00:51:34.091Z,18.00
2024-05-09T00:56:35.819Z,17.95
2024-05-09T01:01:37.581Z,17.94
2024-05-09T01:06:39.263Z,17.88
2024-05-09T01:11:41.188Z,17.84
2024-05-09T01:16:42.904Z,17.94
2024-05-09T01:21:44.635Z,18.01
2024-05-09T01:26:46.289Z,18.07
2024-05-09T01:31:48.345Z,18.05
2024-05-09T01:36:50.025Z,17.95
2024-05-09T01:41:51.743Z,17.96
2024-05-09T01:46:53.436Z,18.03
2024-05-09T01:51:55.097Z,18.03
2024-05-09T01:56:56.724Z,18.01
2024-05-09T02:01:58.476Z,18.01
2024-05-09T02:07:00.224Z,18.04
2024-05-09T02:12:02.063Z,18.04
2024-05-09T02:17:04.210Z,18.05
2024-05-09T02:22:05.867Z,17.86
2024-05-09T02:27:08.247Z,17.91
2024-05-09T02:32:09.961Z,17.95
2024-05-09T02:37:11.621Z,17.92
2024-05-09T02:42:13.245Z,17.97
2024-05-09T02:47:14.994Z,18.07
2024-05-09T02:52:19.883Z,18.05
2024-05-09T02:57:21.516Z,18.03
2024-05-09T03:02:23.216Z,18.00
2024-05-09T03:07:25.051Z,18.06
2024-05-09T03:12:28.209Z,18.01
2024-05-09T03:17:29.933Z,18.03
2024-05-09T03:22:31.630Z,17.91
2024-05-09T03:27:33.259Z,17.88
2024-05-09T03:32:35.085Z,17.82
2024-05-09T03:37:36.850Z,17.75
2024-05-09T03:42:41.615Z,17.76
2024-05-09T03:47:43.392Z,17.69
2024-05-09T03:52:45.225Z,17.65
2024-05-09T03:57:46.868Z,17.59
2024-05-09T04:02:48.565Z,17.49
2024-05-09T04:07:50.303Z,17.47
2024-05-09T04:12:53.212Z,17.45
2024-05-09T04:17:55.176Z,17.46
2024-05-09T04:22:57.081Z,17.43
2024-05-09T04:27:58.745Z,17.39
2024-05-09T04:33:00.500Z,17.37
2024-05-09T04:38:02.673Z,17.34
2024-05-09T04:43:07.618Z,17.35
2024-05-09T04:48:09.651Z,17.39
2024-05-09T04:53:15.261Z,17.41
2024-05-09T04:58:17.036Z,17.42
2024-05-09T05:03:18.906Z,17.49
2024-05-09T05:08:21.054Z,17.53
2024-05-09T05:13:23.925Z,17.63
2024-05-09T05:18:27.523Z,17.75
2024-05-09T05:23:29.654Z,17.80
2024-05-09T05:28:31.316Z,17.86
2024-05-09T05:33:33.185Z,17.94
2024-05-09T05:38:34.973Z,17.95
2024-05-09T05:43:36.643Z,17.84
2024-05-09T05:48:38.378Z,17.92
2024-05-09T05:53:40.192Z,17.97
2024-05-09T05:58:43.191Z,18.08
2024-05-09T06:03:44.974Z,18.17
2024-05-09T06:08:46.812Z,18.36
2024-05-09T06:13:48.763Z,18.40
2024-05-09T06:18:50.613Z,18.56
2024-05-09T06:23:53.444Z,18.59
2024-05-09T06:28:55.161Z,18.70
2024-05-09T06:33:56.964Z,18.87
2024-05-09T06:38:58.680Z,18.86
2024-05-09T06:44:00.389Z,18.91
2024-05-09T06:49:08.356Z,18.92
2024-05-09T06:54:10.188Z,18.93
2024-05-09T06:59:11.883Z,18.86
2024-05-09T07:04:13.685Z,18.82
2024-05-09T07:09:15.440Z,18.96
2024-05-09T07:14:17.124Z,18.82
2024-05-09T07:19:19.214Z,18.88
2024-05-09T07:24:20.952Z,18.95
2024-05-09T07:29:22.675Z,19.12
2024-05-09T07:34:25.324Z,18.22
2024-05-09T07:39:27.163Z,19.13
2024-05-09T07:44:30.516Z,19.24
2024-05-09T07:54:37.000Z,19.08
2024-05-09T07:59:38.965Z,19.42
2024-05-09T08:04:40.769Z,19.27
2024-05-09T08:09:42.501Z,19.37
2024-05-09T08:14:44.152Z,19.46
2024-05-09T08:19:45.874Z,19.63
2024-05-09T08:24:47.638Z,19.48
2024-05-09T08:29:49.316Z,19.51
2024-05-09T08:34:51.072Z,19.63
2024-05-09T08:39:52.871Z,19.70
2024-05-09T08:44:54.538Z,19.87
2024-05-09T08:49:58.436Z,19.84
2024-05-09T08:55:00.857Z,20.12
2024-05-09T09:00:04.868Z,20.23
2024-05-09T09:05:11.161Z,20.29
2024-05-09T09:10:17.853Z,20.26
2024-05-09T09:15:26.755Z,20.43
2024-05-09T09:20:35.884Z,20.61
2024-05-09T09:25:41.846Z,20.33
2024-05-09T09:30:43.640Z,20.69
2024-05-09T09:35:45.393Z,20.85
2024-05-09T09:40:50.250Z,20.91
2024-05-09T09:45:53.472Z,21.01
2024-05-09T09:50:55.634Z,21.19
2024-05-09T09:55:57.729Z,21.04
2024-05-09T10:00:59.486Z,20.94
2024-05-09T10:06:01.271Z,20.49
2024-05-09T10:11:03.652Z,21.43
2024-05-09T10:16:11.406Z,21.54
2024-05-09T10:21:17.323Z,20.99
2024-05-09T10:26:18.969Z,21.35
2024-05-09T10:31:20.628Z,21.16
2024-05-09T10:36:25.440Z,21.83
2024-05-09T10:41:27.079Z,22.00
2024-05-09T10:46:28.738Z,21.81
2024-05-09T10:51:30.444Z,21.85
2024-05-09T10:56:32.145Z,21.08
2024-05-09T11:01:33.869Z,20.99
2024-05-09T11:06:38.105Z,20.93
2024-05-09T11:11:39.860Z,21.53
2024-05-09T11:16:41.532Z,21.87
2024-05-09T11:21:43.312Z,22.40
2024-05-09T11:26:44.978Z,22.53
2024-05-09T11:31:49.558Z,22.68
2024-05-09T11:36:51.266Z,22.16
2024-05-09T11:41:52.986Z,21.83
2024-05-09T11:46:54.961Z,22.62
2024-05-09T11:51:56.558Z,22.25
2024-05-09T11:56:58.115Z,22.27
2024-05-09T12:01:59.740Z,23.09
2024-05-09T12:07:01.474Z,22.77
2024-05-09T12:12:03.702Z,23.32
2024-05-09T12:17:05.722Z,23.15
2024-05-09T12:22:07.621Z,22.52
2024-05-09T12:27:09.320Z,21.62
2024-05-09T12:32:11.016Z,22.43
2024-05-09T12:37:13.732Z,21.92
2024-05-09T12:42:26.368Z,20.48
2024-05-09T12:47:29.647Z,20.77
2024-05-09T12:52:31.346Z,18.85
2024-05-09T12:57:33.021Z,20.01
2024-05-09T13:02:34.836Z,21.40
2024-05-09T13:07:36.632Z,21.64
2024-05-09T13:12:38.502Z,20.24
2024-05-09T13:17:40.192Z,20.34
2024-05-09T13:22:42.554Z,21.35
2024-05-09T13:27:44.254Z,21.03
2024-05-09T13:32:46.036Z,21.81
2024-05-09T13:37:47.805Z,21.23
2024-05-09T13:42:49.462Z,21.25
2024-05-09T13:47:51.270Z,21.46
2024-05-09T13:52:53.020Z,21.61
2024-05-09T13:57:55.386Z,21.22
2024-05-09T14:02:57.412Z,21.81
2024-05-09T14:07:59.104Z,21.05
2024-05-09T14:13:01.285Z,21.80
2024-05-09T14:18:03.946Z,20.92
2024-05-09T14:23:05.579Z,21.55
2024-05-09T14:28:07.406Z,20.82
2024-05-09T14:33:09.727Z,21.07
2024-05-09T14:38:11.741Z,21.73
2024-05-09T14:43:14.495Z,21.55
2024-05-09T14:48:16.840Z,21.38
2024-05-09T14:53:18.626Z,21.25
2024-05-09T14:58:20.484Z,21.15
2024-05-09T15:03:22.806Z,20.93
2024-05-09T15:08:24.674Z,20.69
2024-05-09T15:13:26.546Z,20.62
2024-05-09T15:18:29.503Z,20.60
2024-05-09T15:23:31.340Z,20.70
2024-05-09T15:28:33.136Z,20.63
2024-05-09T15:33:34.925Z,20.33
2024-05-09T15:38:39.155Z,20.30
2024-05-09T15:43:40.886Z,20.09
2024-05-09T15:48:44.768Z,19.73
2024-05-09T15:53:46.693Z,20.01
2024-05-09T15:58:48.341Z,19.74
2024-05-09T16:03:50.310Z,19.87
2024-05-09T16:08:52.056Z,19.80
2024-05-09T16:13:53.696Z,19.64
2024-05-09T16:18:55.406Z,19.79
2024-05-09T16:23:58.376Z,19.70
2024-05-09T16:28:59.998Z,19.85
2024-05-09T16:34:01.726Z,19.79
2024-05-09T16:39:03.662Z,19.41
2024-05-09T16:44:05.382Z,19.44
2024-05-09T16:49:07.032Z,19.66
2024-05-09T16:54:08.656Z,19.57
2024-05-09T16:59:10.306Z,19.33
2024-05-09T17:04:12.213Z,19.53
2024-05-09T17:09:15.701Z,19.67
2024-05-09T17:14:19.861Z,19.53
2024-05-09T17:19:21.638Z,19.82
2024-05-09T17:24:23.319Z,19.73
2024-05-09T17:29:25.046Z,19.82
2024-05-09T17:34:27.080Z,19.79
2024-05-09T17:39:28.874Z,19.85
2024-05-09T17:44:30.502Z,19.47
2024-05-09T17:49:32.275Z,19.61
2024-05-09T17:54:34.047Z,19.57
2024-05-09T17:59:35.718Z,19.51
2024-05-09T18:04:37.481Z,19.61
2024-05-09T18:09:39.190Z,19.64
2024-05-09T18:14:41.006Z,19.17
2024-05-09T18:19:42.672Z,19.51
2024-05-09T18:24:44.347Z,19.58
2024-05-09T18:29:46.010Z,19.41
2024-05-09T18:34:47.717Z,19.60
2024-05-09T18:39:49.417Z,19.63
2024-05-09T18:44:51.086Z,19.63
2024-05-09T18:49:53.074Z,19.63
2024-05-09T18:54:55.064Z,19.63
2024-05-09T18:59:56.732Z,19.63
2024-05-09T19:04:58.716Z,19.56
2024-05-09T19:10:00.797Z,19.41
2024-05-09T19:15:02.564Z,19.35
2024-05-09T19:20:05.780Z,19.29
2024-05-09T19:25:07.769Z,19.26
2024-05-09T19:30:17.201Z,19.14
2024-05-09T19:35:23.386Z,19.07
2024-05-09T19:40:30.931Z,19.07
2024-05-09T19:45:35.744Z,18.98
2024-05-09T19:50:43.083Z,18.90
2024-05-09T19:55:46.256Z,18.82
2024-05-09T20:00:48.058Z,18.76
2024-05-09T20:05:49.879Z,18.67
2024-05-09T20:10:51.561Z,18.50
2024-05-09T20:15:53.202Z,18.52
2024-05-09T20:20:55.131Z,18.46
2024-05-09T20:25:56.836Z,18.34
2024-05-09T20:30:58.557Z,18.25
2024-05-09T20:36:02.156Z,18.07
2024-05-09T20:41:04.364Z,18.06
2024-05-09T20:46:06.211Z,18.15
2024-05-09T20:51:07.952Z,18.07
2024-05-09T20:56:09.590Z,18.06
2024-05-09T21:01:11.311Z,18.05
2024-05-09T21:06:13.080Z,18.03
2024-05-09T21:11:14.700Z,17.94
2024-05-09T21:16:16.432Z,18.07
2024-05-09T21:21:18.156Z,17.91
2024-05-09T21:26:22.985Z,17.79
2024-05-09T21:31:24.704Z,17.74
2024-05-09T21:36:26.389Z,17.76
2024-05-09T21:41:28.018Z,17.68
2024-05-09T21:46:29.810Z,17.29
2024-05-09T21:51:31.938Z,17.28
2024-05-09T21:56:33.657Z,17.13
2024-05-09T22:01:35.948Z,17.24
2024-05-09T22:06:37.785Z,17.45
2024-05-09T22:11:39.465Z,16.89
2024-05-09T22:16:41.305Z,17.17
2024-05-09T22:21:43.021Z,16.80
2024-05-09T22:26:44.696Z,16.75
2024-05-09T22:31:46.332Z,17.01
2024-05-09T22:36:47.975Z,16.92
2024-05-09T22:41:49.948Z,17.40
2024-05-09T22:46:51.693Z,17.23
2024-05-09T22:51:53.386Z,16.67
2024-05-09T22:56:55.039Z,17.32
2024-05-09T23:01:56.972Z,17.29
2024-05-09T23:06:58.677Z,17.37
2024-05-09T23:12:00.409Z,17.23
2024-05-09T23:17:02.118Z,17.10
2024-05-09T23:22:03.959Z,17.09
2024-05-09T23:27:05.595Z,17.17
2024-05-09T23:32:09.384Z,17.17
2024-05-09T23:37:11.059Z,17.04
2024-05-09T23:42:12.734Z,16.67
2024-05-09T23:47:14.469Z,16.92
2024-05-09T23:52:16.182Z,16.64
2024-05-09T23:57:17.834Z,16.75
